KMTH/MTH METAR and TAF weather

Enter ICAO airport designator
Station Type Date Time Source
KMTH METAR 2020/04/05 05:53 UTC NOAA

KMTH 050553Z AUTO 15007KT 10SM CLR 26/18 A2993 RMK AO2 SLP135 T02560183 10256 20233 58007


Station Type Date Time Source
KMTH Decoded METAR 2020/04/05 05:53 UTC NOAA

MARATHON AIRPORT, FL, United States (KMTH) 24-44N 81-03W 2M
Apr 05, 2020 - 01:53 AM EDT / 2020.04.05 0553 UTC
Wind: from the SSE (150 degrees) at 8 MPH (7 KT):0
Visibility: 10 mile(s):0
Sky conditions: clear
Temperature: 78.1 F (25.6 C)
Dew Point: 64.9 F (18.3 C)
Relative Humidity: 64%
Pressure (altimeter): 29.93 in. Hg (1013 hPa)
Pressure tendency: 0.02 inches (0.7 hPa) lower than three hours ago
ob: KMTH 050553Z AUTO 15007KT 10SM CLR 26/18 A2993 RMK AO2 SLP135 T02560183 10256 20233 58007
cycle: 6

Station Type Date Time Source
KMTH TAF 2020/04/05 06:33 UTC NOAA

TAF KMTH 050531Z 0506/0606 15007KT P6SM FEW025 SCT050 BKN250
FM051800 17008KT P6SM SCT025 SCT040 BKN200

Example: see airport list